TAF KJCT
KJCT 280530Z 2806/2906 30005KT P6SM SCT004 FM281000 33004KT 5SM BR BKN015 FM281600 01008KT P6SM FEW150=
METAR KJCT
WC KJCT
WS KJCT
WV KJCT